sensor_id;sensor_type;location;lat;lon;timestamp;temperature;humidity
19538;DHT22;9914;51.008;4.300;2023-09-07T00:01:30;21.10;99.90
19538;DHT22;9914;51.008;4.300;2023-09-07T00:03:56;21.20;99.90
19538;DHT22;9914;51.008;4.300;2023-09-07T00:06:22;21.10;99.90
19538;DHT22;9914;51.008;4.300;2023-09-07T00:08:48;20.90;99.90
19538;DHT22;9914;51.008;4.300;2023-09-07T00:11:13;20.90;99.90
19538;DHT22;9914;51.008;4.300;2023-09-07T00:13:39;21.00;99.90
19538;DHT22;9914;51.008;4.300;2023-09-07T00:16:07;20.90;99.90
19538;DHT22;9914;51.008;4.300;2023-09-07T00:18:34;20.80;99.90
19538;DHT22;9914;51.008;4.300;2023-09-07T00:21:00;20.70;99.90
19538;DHT22;9914;51.008;4.300;2023-09-07T00:23:29;20.60;99.90
19538;DHT22;9914;51.008;4.300;2023-09-07T00:26:01;20.60;99.90
19538;DHT22;9914;51.008;4.300;2023-09-07T00:28:27;20.60;99.90
19538;DHT22;9914;51.008;4.300;2023-09-07T00:30:53;20.60;99.90
19538;DHT22;9914;51.008;4.300;2023-09-07T00:33:19;20.70;99.90
19538;DHT22;9914;51.008;4.300;2023-09-07T00:35:44;20.60;99.90
19538;DHT22;9914;51.008;4.300;2023-09-07T00:38:10;20.60;99.90
19538;DHT22;9914;51.008;4.300;2023-09-07T00:40:37;20.70;99.90
19538;DHT22;9914;51.008;4.300;2023-09-07T00:43:02;20.70;99.90
19538;DHT22;9914;51.008;4.300;2023-09-07T00:45:30;20.70;99.90
19538;DHT22;9914;51.008;4.300;2023-09-07T00:47:57;20.60;99.90
19538;DHT22;9914;51.008;4.300;2023-09-07T00:50:23;20.50;99.90
19538;DHT22;9914;51.008;4.300;2023-09-07T00:52:49;20.40;99.90
19538;DHT22;9914;51.008;4.300;2023-09-07T00:55:15;20.50;99.90
19538;DHT22;9914;51.008;4.300;2023-09-07T00:57:43;20.50;99.90
19538;DHT22;9914;51.008;4.300;2023-09-07T01:00:09;20.50;99.90
19538;DHT22;9914;51.008;4.300;2023-09-07T01:02:35;20.40;99.90
19538;DHT22;9914;51.008;4.300;2023-09-07T01:05:04;20.30;99.90
19538;DHT22;9914;51.008;4.300;2023-09-07T01:07:37;20.30;99.90
19538;DHT22;9914;51.008;4.300;2023-09-07T01:10:03;20.20;99.90
19538;DHT22;9914;51.008;4.300;2023-09-07T01:12:30;20.20;99.90
19538;DHT22;9914;51.008;4.300;2023-09-07T01:14:56;20.10;99.90
19538;DHT22;9914;51.008;4.300;2023-09-07T01:17:22;20.20;99.90
19538;DHT22;9914;51.008;4.300;2023-09-07T01:19:48;20.30;99.90
19538;DHT22;9914;51.008;4.300;2023-09-07T01:22:19;20.20;99.90
19538;DHT22;9914;51.008;4.300;2023-09-07T01:24:47;20.10;99.90
19538;DHT22;9914;51.008;4.300;2023-09-07T01:27:14;20.00;99.90
19538;DHT22;9914;51.008;4.300;2023-09-07T01:29:40;19.90;99.90
19538;DHT22;9914;51.008;4.300;2023-09-07T01:32:06;19.90;99.90
19538;DHT22;9914;51.008;4.300;2023-09-07T01:34:32;19.90;99.90
19538;DHT22;9914;51.008;4.300;2023-09-07T01:36:59;19.80;99.90
19538;DHT22;9914;51.008;4.300;2023-09-07T01:39:25;19.70;99.90
19538;DHT22;9914;51.008;4.300;2023-09-07T01:41:52;19.70;99.90
19538;DHT22;9914;51.008;4.300;2023-09-07T01:44:18;19.70;99.90
19538;DHT22;9914;51.008;4.300;2023-09-07T01:46:44;19.60;99.90
19538;DHT22;9914;51.008;4.300;2023-09-07T01:49:09;19.60;99.90
19538;DHT22;9914;51.008;4.300;2023-09-07T01:51:35;19.50;99.90
19538;DHT22;9914;51.008;4.300;2023-09-07T01:54:02;19.40;99.90
19538;DHT22;9914;51.008;4.300;2023-09-07T01:56:27;19.40;99.90
19538;DHT22;9914;51.008;4.300;2023-09-07T01:58:53;19.40;99.90
19538;DHT22;9914;51.008;4.300;2023-09-07T02:03:48;19.40;99.90
19538;DHT22;9914;51.008;4.300;2023-09-07T02:06:14;19.30;99.90
19538;DHT22;9914;51.008;4.300;2023-09-07T02:08:40;19.30;99.90
19538;DHT22;9914;51.008;4.300;2023-09-07T02:11:06;19.30;99.90
19538;DHT22;9914;51.008;4.300;2023-09-07T02:13:32;19.30;99.90
19538;DHT22;9914;51.008;4.300;2023-09-07T02:15:57;19.30;99.90
19538;DHT22;9914;51.008;4.300;2023-09-07T02:18:23;19.20;99.90
19538;DHT22;9914;51.008;4.300;2023-09-07T02:20:49;19.20;99.90
19538;DHT22;9914;51.008;4.300;2023-09-07T02:23:14;19.20;99.90
19538;DHT22;9914;51.008;4.300;2023-09-07T02:25:41;19.20;99.90
19538;DHT22;9914;51.008;4.300;2023-09-07T02:28:06;19.10;99.90
19538;DHT22;9914;51.008;4.300;2023-09-07T02:30:32;19.10;99.90
19538;DHT22;9914;51.008;4.300;2023-09-07T02:32:57;19.10;99.90
19538;DHT22;9914;51.008;4.300;2023-09-07T02:35:23;19.10;99.90
19538;DHT22;9914;51.008;4.300;2023-09-07T02:37:49;19.10;99.90
19538;DHT22;9914;51.008;4.300;2023-09-07T02:40:14;19.20;99.90
19538;DHT22;9914;51.008;4.300;2023-09-07T02:42:42;19.10;99.90
19538;DHT22;9914;51.008;4.300;2023-09-07T02:45:11;19.10;99.90
19538;DHT22;9914;51.008;4.300;2023-09-07T02:47:38;19.00;99.90
19538;DHT22;9914;51.008;4.300;2023-09-07T02:50:04;18.90;99.90
19538;DHT22;9914;51.008;4.300;2023-09-07T02:52:30;18.90;99.90
19538;DHT22;9914;51.008;4.300;2023-09-07T02:54:56;18.80;99.90
19538;DHT22;9914;51.008;4.300;2023-09-07T02:57:22;18.80;99.90
19538;DHT22;9914;51.008;4.300;2023-09-07T02:59:48;18.80;99.90
19538;DHT22;9914;51.008;4.300;2023-09-07T03:02:13;18.70;99.90
19538;DHT22;9914;51.008;4.300;2023-09-07T03:04:39;18.70;99.90
19538;DHT22;9914;51.008;4.300;2023-09-07T03:07:05;18.60;99.90
19538;DHT22;9914;51.008;4.300;2023-09-07T03:09:31;18.60;99.90
19538;DHT22;9914;51.008;4.300;2023-09-07T03:11:56;18.60;99.90
19538;DHT22;9914;51.008;4.300;2023-09-07T03:14:22;18.60;99.90
19538;DHT22;9914;51.008;4.300;2023-09-07T03:16:48;18.60;99.90
19538;DHT22;9914;51.008;4.300;2023-09-07T03:19:15;18.50;99.90
19538;DHT22;9914;51.008;4.300;2023-09-07T03:21:42;18.50;99.90
19538;DHT22;9914;51.008;4.300;2023-09-07T03:24:08;18.50;99.90
19538;DHT22;9914;51.008;4.300;2023-09-07T03:26:34;18.40;99.90
19538;DHT22;9914;51.008;4.300;2023-09-07T03:29:00;18.60;99.90
19538;DHT22;9914;51.008;4.300;2023-09-07T03:31:26;18.60;99.90
19538;DHT22;9914;51.008;4.300;2023-09-07T03:33:52;18.60;99.90
19538;DHT22;9914;51.008;4.300;2023-09-07T03:36:18;18.60;99.90
19538;DHT22;9914;51.008;4.300;2023-09-07T03:38:44;18.50;99.90
19538;DHT22;9914;51.008;4.300;2023-09-07T03:41:10;18.50;99.90
19538;DHT22;9914;51.008;4.300;2023-09-07T03:43:36;18.50;99.90
19538;DHT22;9914;51.008;4.300;2023-09-07T03:46:01;18.40;99.90
19538;DHT22;9914;51.008;4.300;2023-09-07T03:48:27;18.40;99.90
19538;DHT22;9914;51.008;4.300;2023-09-07T03:50:53;18.30;99.90
19538;DHT22;9914;51.008;4.300;2023-09-07T03:53:18;18.30;99.90
19538;DHT22;9914;51.008;4.300;2023-09-07T03:55:44;18.20;99.90
19538;DHT22;9914;51.008;4.300;2023-09-07T03:58:11;18.30;99.90
19538;DHT22;9914;51.008;4.300;2023-09-07T04:00:44;18.20;99.90
19538;DHT22;9914;51.008;4.300;2023-09-07T04:03:10;18.30;99.90
19538;DHT22;9914;51.008;4.300;2023-09-07T04:05:38;18.30;99.90
19538;DHT22;9914;51.008;4.300;2023-09-07T04:08:04;18.30;99.90
19538;DHT22;9914;51.008;4.300;2023-09-07T04:10:30;18.20;99.90
19538;DHT22;9914;51.008;4.300;2023-09-07T04:12:56;18.20;99.90
19538;DHT22;9914;51.008;4.300;2023-09-07T04:15:21;18.10;99.90
19538;DHT22;9914;51.008;4.300;2023-09-07T04:17:49;18.10;99.90
19538;DHT22;9914;51.008;4.300;2023-09-07T04:20:15;18.10;99.90
19538;DHT22;9914;51.008;4.300;2023-09-07T04:22:40;18.00;99.90
19538;DHT22;9914;51.008;4.300;2023-09-07T04:25:06;18.00;99.90
19538;DHT22;9914;51.008;4.300;2023-09-07T04:27:32;18.00;99.90
19538;DHT22;9914;51.008;4.300;2023-09-07T04:29:58;18.00;99.90
19538;DHT22;9914;51.008;4.300;2023-09-07T04:32:23;18.10;99.90
19538;DHT22;9914;51.008;4.300;2023-09-07T04:34:54;18.00;99.90
19538;DHT22;9914;51.008;4.300;2023-09-07T04:37:20;18.10;99.90
19538;DHT22;9914;51.008;4.300;2023-09-07T04:39:46;18.00;99.90
19538;DHT22;9914;51.008;4.300;2023-09-07T04:42:13;18.00;99.90
19538;DHT22;9914;51.008;4.300;2023-09-07T04:44:39;18.00;99.90
19538;DHT22;9914;51.008;4.300;2023-09-07T04:47:04;17.90;99.90
19538;DHT22;9914;51.008;4.300;2023-09-07T04:49:30;17.80;99.90
19538;DHT22;9914;51.008;4.300;2023-09-07T04:51:57;17.80;99.90
19538;DHT22;9914;51.008;4.300;2023-09-07T04:54:22;17.80;99.90
19538;DHT22;9914;51.008;4.300;2023-09-07T04:56:48;17.90;99.90
19538;DHT22;9914;51.008;4.300;2023-09-07T04:59:15;17.90;99.90
19538;DHT22;9914;51.008;4.300;2023-09-07T05:01:41;18.00;99.90
19538;DHT22;9914;51.008;4.300;2023-09-07T05:04:06;18.00;99.90
19538;DHT22;9914;51.008;4.300;2023-09-07T05:06:32;17.90;99.90
19538;DHT22;9914;51.008;4.300;2023-09-07T05:09:03;17.70;99.90
19538;DHT22;9914;51.008;4.300;2023-09-07T05:11:29;17.60;99.90
19538;DHT22;9914;51.008;4.300;2023-09-07T05:13:54;17.60;99.90
19538;DHT22;9914;51.008;4.300;2023-09-07T05:16:20;17.70;99.90
19538;DHT22;9914;51.008;4.300;2023-09-07T05:18:46;17.80;99.90
19538;DHT22;9914;51.008;4.300;2023-09-07T05:21:15;17.90;99.90
19538;DHT22;9914;51.008;4.300;2023-09-07T05:23:41;17.80;99.90
19538;DHT22;9914;51.008;4.300;2023-09-07T05:26:07;17.80;99.90
19538;DHT22;9914;51.008;4.300;2023-09-07T05:28:33;17.80;99.90
19538;DHT22;9914;51.008;4.300;2023-09-07T05:30:58;17.80;99.90
19538;DHT22;9914;51.008;4.300;2023-09-07T05:33:24;17.90;99.90
19538;DHT22;9914;51.008;4.300;2023-09-07T05:35:50;17.90;99.90
19538;DHT22;9914;51.008;4.300;2023-09-07T05:38:15;17.80;99.90
19538;DHT22;9914;51.008;4.300;2023-09-07T05:40:43;18.00;99.90
19538;DHT22;9914;51.008;4.300;2023-09-07T05:43:10;18.00;99.90
19538;DHT22;9914;51.008;4.300;2023-09-07T05:45:40;18.10;99.90
19538;DHT22;9914;51.008;4.300;2023-09-07T05:48:06;18.20;99.90
19538;DHT22;9914;51.008;4.300;2023-09-07T05:50:36;18.20;99.90
19538;DHT22;9914;51.008;4.300;2023-09-07T05:53:02;18.30;99.90
19538;DHT22;9914;51.008;4.300;2023-09-07T05:55:29;18.40;99.90
19538;DHT22;9914;51.008;4.300;2023-09-07T05:57:55;18.40;99.90
19538;DHT22;9914;51.008;4.300;2023-09-07T06:00:21;18.40;99.90
19538;DHT22;9914;51.008;4.300;2023-09-07T06:02:46;18.50;99.90
19538;DHT22;9914;51.008;4.300;2023-09-07T06:05:13;18.50;99.90
19538;DHT22;9914;51.008;4.300;2023-09-07T06:07:38;18.70;99.90
19538;DHT22;9914;51.008;4.300;2023-09-07T06:10:04;18.60;99.90
19538;DHT22;9914;51.008;4.300;2023-09-07T06:12:31;18.70;99.90
19538;DHT22;9914;51.008;4.300;2023-09-07T06:14:57;18.80;99.90
19538;DHT22;9914;51.008;4.300;2023-09-07T06:17:23;19.00;99.90
19538;DHT22;9914;51.008;4.300;2023-09-07T06:19:50;19.20;99.90
19538;DHT22;9914;51.008;4.300;2023-09-07T06:22:15;19.10;99.90
19538;DHT22;9914;51.008;4.300;2023-09-07T06:24:41;19.20;99.90
19538;DHT22;9914;51.008;4.300;2023-09-07T06:27:08;19.20;99.90
19538;DHT22;9914;51.008;4.300;2023-09-07T06:29:34;19.30;99.90
19538;DHT22;9914;51.008;4.300;2023-09-07T06:31:59;19.20;99.90
19538;DHT22;9914;51.008;4.300;2023-09-07T06:34:26;19.20;99.90
19538;DHT22;9914;51.008;4.300;2023-09-07T06:36:51;19.30;99.90
19538;DHT22;9914;51.008;4.300;2023-09-07T06:39:17;19.40;99.90
19538;DHT22;9914;51.008;4.300;2023-09-07T06:41:46;19.50;99.90
19538;DHT22;9914;51.008;4.300;2023-09-07T06:44:11;19.70;99.90
19538;DHT22;9914;51.008;4.300;2023-09-07T06:46:37;19.80;99.90
19538;DHT22;9914;51.008;4.300;2023-09-07T06:49:03;19.80;99.90
19538;DHT22;9914;51.008;4.300;2023-09-07T06:51:30;20.00;99.90
19538;DHT22;9914;51.008;4.300;2023-09-07T06:53:56;20.10;99.90
19538;DHT22;9914;51.008;4.300;2023-09-07T06:56:22;20.30;99.90
19538;DHT22;9914;51.008;4.300;2023-09-07T06:58:48;20.40;99.90
19538;DHT22;9914;51.008;4.300;2023-09-07T07:01:13;20.40;99.90
19538;DHT22;9914;51.008;4.300;2023-09-07T07:03:39;20.50;99.90
19538;DHT22;9914;51.008;4.300;2023-09-07T07:06:05;20.60;99.90
19538;DHT22;9914;51.008;4.300;2023-09-07T07:08:30;20.70;99.90
19538;DHT22;9914;51.008;4.300;2023-09-07T07:10:56;20.60;99.90
19538;DHT22;9914;51.008;4.300;2023-09-07T07:13:22;20.70;99.90
19538;DHT22;9914;51.008;4.300;2023-09-07T07:15:48;20.80;99.90
19538;DHT22;9914;51.008;4.300;2023-09-07T07:18:13;21.00;99.90
19538;DHT22;9914;51.008;4.300;2023-09-07T07:20:40;21.10;99.90
19538;DHT22;9914;51.008;4.300;2023-09-07T07:23:06;21.20;99.90
19538;DHT22;9914;51.008;4.300;2023-09-07T07:25:32;21.30;99.90
19538;DHT22;9914;51.008;4.300;2023-09-07T07:27:59;21.50;99.90
19538;DHT22;9914;51.008;4.300;2023-09-07T07:30:28;21.60;99.90
19538;DHT22;9914;51.008;4.300;2023-09-07T07:32:56;21.70;99.90
19538;DHT22;9914;51.008;4.300;2023-09-07T07:35:22;21.80;99.90
19538;DHT22;9914;51.008;4.300;2023-09-07T07:37:49;21.90;99.90
19538;DHT22;9914;51.008;4.300;2023-09-07T07:40:15;22.10;99.90
19538;DHT22;9914;51.008;4.300;2023-09-07T07:42:41;22.20;99.90
19538;DHT22;9914;51.008;4.300;2023-09-07T07:45:08;22.20;99.90
19538;DHT22;9914;51.008;4.300;2023-09-07T07:47:33;22.30;99.90
19538;DHT22;9914;51.008;4.300;2023-09-07T07:49:59;22.50;99.90
19538;DHT22;9914;51.008;4.300;2023-09-07T07:52:25;22.70;99.90
19538;DHT22;9914;51.008;4.300;2023-09-07T07:54:50;22.70;99.90
19538;DHT22;9914;51.008;4.300;2023-09-07T07:57:17;22.80;99.90
19538;DHT22;9914;51.008;4.300;2023-09-07T07:59:43;22.60;99.90
19538;DHT22;9914;51.008;4.300;2023-09-07T08:02:08;22.80;99.90
19538;DHT22;9914;51.008;4.300;2023-09-07T08:04:34;23.00;99.90
19538;DHT22;9914;51.008;4.300;2023-09-07T08:07:01;23.10;99.90
19538;DHT22;9914;51.008;4.300;2023-09-07T08:09:30;23.20;99.90
19538;DHT22;9914;51.008;4.300;2023-09-07T08:11:57;23.10;99.90
19538;DHT22;9914;51.008;4.300;2023-09-07T08:14:24;23.40;99.90
19538;DHT22;9914;51.008;4.300;2023-09-07T08:16:50;23.60;99.90
19538;DHT22;9914;51.008;4.300;2023-09-07T08:19:16;23.60;99.90
19538;DHT22;9914;51.008;4.300;2023-09-07T08:21:42;23.70;99.90
19538;DHT22;9914;51.008;4.300;2023-09-07T08:24:08;23.80;99.90
19538;DHT22;9914;51.008;4.300;2023-09-07T08:26:36;24.00;99.90
19538;DHT22;9914;51.008;4.300;2023-09-07T08:29:02;24.10;99.90
19538;DHT22;9914;51.008;4.300;2023-09-07T08:31:31;24.30;99.90
19538;DHT22;9914;51.008;4.300;2023-09-07T08:34:00;24.60;99.90
19538;DHT22;9914;51.008;4.300;2023-09-07T08:36:27;24.60;99.90
19538;DHT22;9914;51.008;4.300;2023-09-07T08:38:54;24.80;99.90
19538;DHT22;9914;51.008;4.300;2023-09-07T08:41:21;25.00;99.90
19538;DHT22;9914;51.008;4.300;2023-09-07T08:43:47;25.10;99.90
19538;DHT22;9914;51.008;4.300;2023-09-07T08:46:17;25.10;99.90
19538;DHT22;9914;51.008;4.300;2023-09-07T08:48:43;25.10;99.90
19538;DHT22;9914;51.008;4.300;2023-09-07T08:51:12;25.10;99.90
19538;DHT22;9914;51.008;4.300;2023-09-07T08:53:40;25.40;99.90
19538;DHT22;9914;51.008;4.300;2023-09-07T08:56:07;25.60;99.90
19538;DHT22;9914;51.008;4.300;2023-09-07T08:58:38;25.80;99.90
19538;DHT22;9914;51.008;4.300;2023-09-07T09:01:05;25.90;99.90
19538;DHT22;9914;51.008;4.300;2023-09-07T09:03:31;25.80;99.90
19538;DHT22;9914;51.008;4.300;2023-09-07T09:05:57;25.90;99.90
19538;DHT22;9914;51.008;4.300;2023-09-07T09:08:23;26.10;99.90
19538;DHT22;9914;51.008;4.300;2023-09-07T09:10:59;26.20;99.90
19538;DHT22;9914;51.008;4.300;2023-09-07T09:13:32;26.10;99.90
19538;DHT22;9914;51.008;4.300;2023-09-07T09:16:01;26.20;99.90
19538;DHT22;9914;51.008;4.300;2023-09-07T09:18:27;26.60;99.90
19538;DHT22;9914;51.008;4.300;2023-09-07T09:20:54;26.70;99.90
19538;DHT22;9914;51.008;4.300;2023-09-07T09:23:20;26.80;99.90
19538;DHT22;9914;51.008;4.300;2023-09-07T09:25:48;26.70;99.90
19538;DHT22;9914;51.008;4.300;2023-09-07T09:28:14;26.80;99.90
19538;DHT22;9914;51.008;4.300;2023-09-07T09:30:41;26.70;99.90
19538;DHT22;9914;51.008;4.300;2023-09-07T09:33:10;26.80;99.90
19538;DHT22;9914;51.008;4.300;2023-09-07T09:35:37;27.10;99.90
19538;DHT22;9914;51.008;4.300;2023-09-07T09:38:03;27.30;99.90
19538;DHT22;9914;51.008;4.300;2023-09-07T09:40:33;27.60;99.90
19538;DHT22;9914;51.008;4.300;2023-09-07T09:43:02;27.70;99.90
19538;DHT22;9914;51.008;4.300;2023-09-07T09:45:29;27.80;99.90
19538;DHT22;9914;51.008;4.300;2023-09-07T09:47:55;27.70;99.90
19538;DHT22;9914;51.008;4.300;2023-09-07T09:50:25;27.90;99.90
19538;DHT22;9914;51.008;4.300;2023-09-07T09:52:52;28.00;99.90
19538;DHT22;9914;51.008;4.300;2023-09-07T09:55:22;28.10;99.90
19538;DHT22;9914;51.008;4.300;2023-09-07T09:57:48;28.10;99.90
19538;DHT22;9914;51.008;4.300;2023-09-07T10:00:14;28.20;99.90
19538;DHT22;9914;51.008;4.300;2023-09-07T10:05:36;28.10;99.90
19538;DHT22;9914;51.008;4.300;2023-09-07T10:08:08;28.10;99.90
19538;DHT22;9914;51.008;4.300;2023-09-07T10:10:36;28.10;99.90
19538;DHT22;9914;51.008;4.300;2023-09-07T10:13:02;28.10;99.90
19538;DHT22;9914;51.008;4.300;2023-09-07T10:15:29;28.20;99.90
19538;DHT22;9914;51.008;4.300;2023-09-07T10:18:05;28.30;99.90
19538;DHT22;9914;51.008;4.300;2023-09-07T10:21:06;28.10;99.90
19538;DHT22;9914;51.008;4.300;2023-09-07T10:23:42;28.20;99.90
19538;DHT22;9914;51.008;4.300;2023-09-07T10:26:16;28.20;99.90
19538;DHT22;9914;51.008;4.300;2023-09-07T10:28:45;28.30;99.90
19538;DHT22;9914;51.008;4.300;2023-09-07T10:33:40;28.50;99.90
19538;DHT22;9914;51.008;4.300;2023-09-07T10:36:06;28.40;99.90
19538;DHT22;9914;51.008;4.300;2023-09-07T10:38:33;28.50;99.90
19538;DHT22;9914;51.008;4.300;2023-09-07T10:41:01;28.80;99.90
19538;DHT22;9914;51.008;4.300;2023-09-07T10:43:28;29.00;99.90
19538;DHT22;9914;51.008;4.300;2023-09-07T10:45:55;29.10;99.90
19538;DHT22;9914;51.008;4.300;2023-09-07T10:48:25;29.20;99.90
19538;DHT22;9914;51.008;4.300;2023-09-07T10:50:51;29.30;99.90
19538;DHT22;9914;51.008;4.300;2023-09-07T10:53:28;29.50;99.90
19538;DHT22;9914;51.008;4.300;2023-09-07T10:55:56;29.50;99.90
19538;DHT22;9914;51.008;4.300;2023-09-07T10:58:33;29.40;99.90
19538;DHT22;9914;51.008;4.300;2023-09-07T11:00:59;29.20;99.90
19538;DHT22;9914;51.008;4.300;2023-09-07T11:03:26;29.40;99.90
19538;DHT22;9914;51.008;4.300;2023-09-07T11:06:14;29.70;99.90
19538;DHT22;9914;51.008;4.300;2023-09-07T11:08:41;29.90;99.90
19538;DHT22;9914;51.008;4.300;2023-09-07T11:11:08;29.90;99.90
19538;DHT22;9914;51.008;4.300;2023-09-07T11:13:34;29.60;99.90
19538;DHT22;9914;51.008;4.300;2023-09-07T11:16:00;29.70;99.90
19538;DHT22;9914;51.008;4.300;2023-09-07T11:18:26;29.50;99.90
19538;DHT22;9914;51.008;4.300;2023-09-07T11:20:52;29.50;99.90
19538;DHT22;9914;51.008;4.300;2023-09-07T11:23:19;29.60;99.90
19538;DHT22;9914;51.008;4.300;2023-09-07T11:25:48;29.70;99.90
19538;DHT22;9914;51.008;4.300;2023-09-07T11:28:16;29.60;99.90
19538;DHT22;9914;51.008;4.300;2023-09-07T11:30:49;29.50;99.90
19538;DHT22;9914;51.008;4.300;2023-09-07T11:33:16;29.40;99.90
19538;DHT22;9914;51.008;4.300;2023-09-07T11:35:42;29.40;99.90
19538;DHT22;9914;51.008;4.300;2023-09-07T11:38:08;29.50;99.90
19538;DHT22;9914;51.008;4.300;2023-09-07T11:40:36;29.60;99.90
19538;DHT22;9914;51.008;4.300;2023-09-07T11:43:02;29.90;99.90
19538;DHT22;9914;51.008;4.300;2023-09-07T11:45:28;30.10;99.90
19538;DHT22;9914;51.008;4.300;2023-09-07T11:47:54;30.50;99.90
19538;DHT22;9914;51.008;4.300;2023-09-07T11:50:19;30.50;99.90
19538;DHT22;9914;51.008;4.300;2023-09-07T11:52:46;30.50;99.90
19538;DHT22;9914;51.008;4.300;2023-09-07T11:55:13;30.30;99.90
19538;DHT22;9914;51.008;4.300;2023-09-07T11:57:39;30.20;99.90
19538;DHT22;9914;51.008;4.300;2023-09-07T12:00:07;30.50;99.90
19538;DHT22;9914;51.008;4.300;2023-09-07T12:02:38;30.50;99.90
19538;DHT22;9914;51.008;4.300;2023-09-07T12:05:05;30.70;99.90
19538;DHT22;9914;51.008;4.300;2023-09-07T12:07:32;30.90;99.90
19538;DHT22;9914;51.008;4.300;2023-09-07T12:09:57;30.60;99.90
19538;DHT22;9914;51.008;4.300;2023-09-07T12:12:23;30.70;99.90
19538;DHT22;9914;51.008;4.300;2023-09-07T12:14:49;30.70;99.90
19538;DHT22;9914;51.008;4.300;2023-09-07T12:17:14;31.00;99.90
19538;DHT22;9914;51.008;4.300;2023-09-07T12:19:40;31.00;99.90
19538;DHT22;9914;51.008;4.300;2023-09-07T12:22:11;30.90;99.90
19538;DHT22;9914;51.008;4.300;2023-09-07T12:24:37;30.70;99.90
19538;DHT22;9914;51.008;4.300;2023-09-07T12:27:02;30.80;99.90
19538;DHT22;9914;51.008;4.300;2023-09-07T12:29:28;30.80;99.90
19538;DHT22;9914;51.008;4.300;2023-09-07T12:31:54;30.70;99.90
19538;DHT22;9914;51.008;4.300;2023-09-07T12:34:20;30.80;99.90
19538;DHT22;9914;51.008;4.300;2023-09-07T12:36:45;31.00;99.90
19538;DHT22;9914;51.008;4.300;2023-09-07T12:39:11;31.00;99.90
19538;DHT22;9914;51.008;4.300;2023-09-07T12:41:38;30.70;99.90
19538;DHT22;9914;51.008;4.300;2023-09-07T12:44:04;30.80;99.90
19538;DHT22;9914;51.008;4.300;2023-09-07T12:46:32;31.00;99.90
19538;DHT22;9914;51.008;4.300;2023-09-07T12:48:57;31.00;99.90
19538;DHT22;9914;51.008;4.300;2023-09-07T12:51:23;31.00;99.90
19538;DHT22;9914;51.008;4.300;2023-09-07T12:53:49;31.20;99.90
19538;DHT22;9914;51.008;4.300;2023-09-07T12:56:15;31.10;99.90
19538;DHT22;9914;51.008;4.300;2023-09-07T12:58:41;30.90;99.90
19538;DHT22;9914;51.008;4.300;2023-09-07T13:01:08;31.00;99.90
19538;DHT22;9914;51.008;4.300;2023-09-07T13:03:36;31.10;99.90
19538;DHT22;9914;51.008;4.300;2023-09-07T13:06:02;31.00;99.90
19538;DHT22;9914;51.008;4.300;2023-09-07T13:08:28;31.00;99.90
19538;DHT22;9914;51.008;4.300;2023-09-07T13:10:55;31.10;99.90
19538;DHT22;9914;51.008;4.300;2023-09-07T13:13:22;31.20;99.90
19538;DHT22;9914;51.008;4.300;2023-09-07T13:15:50;31.40;99.90
19538;DHT22;9914;51.008;4.300;2023-09-07T13:18:16;31.50;99.90
19538;DHT22;9914;51.008;4.300;2023-09-07T13:20:41;31.50;99.90
19538;DHT22;9914;51.008;4.300;2023-09-07T13:23:07;31.50;99.90
19538;DHT22;9914;51.008;4.300;2023-09-07T13:25:33;31.60;99.90
19538;DHT22;9914;51.008;4.300;2023-09-07T13:27:59;31.60;99.90
19538;DHT22;9914;51.008;4.300;2023-09-07T13:30:24;31.60;99.90
19538;DHT22;9914;51.008;4.300;2023-09-07T13:32:50;31.70;99.90
19538;DHT22;9914;51.008;4.300;2023-09-07T13:35:16;31.90;99.90
19538;DHT22;9914;51.008;4.300;2023-09-07T13:37:42;31.70;99.90
19538;DHT22;9914;51.008;4.300;2023-09-07T13:40:08;31.80;99.90
19538;DHT22;9914;51.008;4.300;2023-09-07T13:42:34;31.70;99.90
19538;DHT22;9914;51.008;4.300;2023-09-07T13:45:00;31.80;99.90
19538;DHT22;9914;51.008;4.300;2023-09-07T13:47:26;31.80;99.90
19538;DHT22;9914;51.008;4.300;2023-09-07T13:49:52;31.70;99.90
19538;DHT22;9914;51.008;4.300;2023-09-07T13:52:17;31.70;99.90
19538;DHT22;9914;51.008;4.300;2023-09-07T13:54:43;31.70;99.90
19538;DHT22;9914;51.008;4.300;2023-09-07T13:57:09;31.70;99.90
19538;DHT22;9914;51.008;4.300;2023-09-07T13:59:36;31.70;99.90
19538;DHT22;9914;51.008;4.300;2023-09-07T14:02:02;31.60;99.90
19538;DHT22;9914;51.008;4.300;2023-09-07T14:04:28;31.90;99.90
19538;DHT22;9914;51.008;4.300;2023-09-07T14:06:54;32.00;99.90
19538;DHT22;9914;51.008;4.300;2023-09-07T14:09:20;32.00;99.90
19538;DHT22;9914;51.008;4.300;2023-09-07T14:11:49;31.90;99.90
19538;DHT22;9914;51.008;4.300;2023-09-07T14:14:15;31.90;99.90
19538;DHT22;9914;51.008;4.300;2023-09-07T14:16:42;31.90;99.90
19538;DHT22;9914;51.008;4.300;2023-09-07T14:19:07;31.70;99.90
19538;DHT22;9914;51.008;4.300;2023-09-07T14:21:33;31.70;99.90
19538;DHT22;9914;51.008;4.300;2023-09-07T14:23:59;31.60;99.90
19538;DHT22;9914;51.008;4.300;2023-09-07T14:26:25;31.60;99.90
19538;DHT22;9914;51.008;4.300;2023-09-07T14:28:50;31.80;99.90
19538;DHT22;9914;51.008;4.300;2023-09-07T14:31:16;31.80;99.90
19538;DHT22;9914;51.008;4.300;2023-09-07T14:33:42;31.80;99.90
19538;DHT22;9914;51.008;4.300;2023-09-07T14:36:08;31.80;99.90
19538;DHT22;9914;51.008;4.300;2023-09-07T14:38:37;31.90;99.90
19538;DHT22;9914;51.008;4.300;2023-09-07T14:41:10;31.60;99.90
19538;DHT22;9914;51.008;4.300;2023-09-07T14:43:47;31.60;99.90
19538;DHT22;9914;51.008;4.300;2023-09-07T14:46:14;31.60;99.90
19538;DHT22;9914;51.008;4.300;2023-09-07T14:48:40;31.90;99.90
19538;DHT22;9914;51.008;4.300;2023-09-07T14:51:05;31.80;99.90
19538;DHT22;9914;51.008;4.300;2023-09-07T14:53:31;31.80;99.90
19538;DHT22;9914;51.008;4.300;2023-09-07T14:55:56;31.80;99.90
19538;DHT22;9914;51.008;4.300;2023-09-07T14:58:22;31.90;99.90
19538;DHT22;9914;51.008;4.300;2023-09-07T15:00:48;31.90;99.90
19538;DHT22;9914;51.008;4.300;2023-09-07T15:03:13;31.90;99.90
19538;DHT22;9914;51.008;4.300;2023-09-07T15:05:39;31.90;99.90
19538;DHT22;9914;51.008;4.300;2023-09-07T15:08:06;32.00;99.90
19538;DHT22;9914;51.008;4.300;2023-09-07T15:10:32;32.10;99.90
19538;DHT22;9914;51.008;4.300;2023-09-07T15:13:00;32.10;99.90
19538;DHT22;9914;51.008;4.300;2023-09-07T15:15:28;32.00;99.90
19538;DHT22;9914;51.008;4.300;2023-09-07T15:17:54;31.90;99.90
19538;DHT22;9914;51.008;4.300;2023-09-07T15:20:20;32.00;99.90
19538;DHT22;9914;51.008;4.300;2023-09-07T15:22:46;32.00;99.90
19538;DHT22;9914;51.008;4.300;2023-09-07T15:25:11;32.20;99.90
19538;DHT22;9914;51.008;4.300;2023-09-07T15:27:37;32.20;99.90
19538;DHT22;9914;51.008;4.300;2023-09-07T15:30:03;32.80;99.90
19538;DHT22;9914;51.008;4.300;2023-09-07T15:32:29;34.10;99.90
19538;DHT22;9914;51.008;4.300;2023-09-07T15:34:56;35.70;99.90
19538;DHT22;9914;51.008;4.300;2023-09-07T15:37:21;36.50;99.90
19538;DHT22;9914;51.008;4.300;2023-09-07T15:39:47;37.40;99.90
19538;DHT22;9914;51.008;4.300;2023-09-07T15:42:13;38.10;99.90
19538;DHT22;9914;51.008;4.300;2023-09-07T15:44:39;37.70;99.90
19538;DHT22;9914;51.008;4.300;2023-09-07T15:47:06;37.40;99.90
19538;DHT22;9914;51.008;4.300;2023-09-07T15:49:32;38.30;99.90